Time;durP1;ratioP1;P1;durP2;ratioP2;P2;SDS_P1;SDS_P2;PMS_P1;PMS_P2;Temp;Humidity;BMP_temperature;BMP_pressure;BME280_temperature;BME280_humidity;BME280_pressure;Samples;Min_cycle;Max_cycle;Signal;HPM_P1;HPM_P2
2023/05/24 00:00:43;;;;;;;10.25;1.75;;;9.10;99.90;;;;;;5085810;28;20039;-71
2023/05/24 00:03:09;;;;;;;10.77;1.80;;;9.10;99.90;;;;;;5076735;28;20036;-70
2023/05/24 00:05:39;;;;;;;9.43;1.90;;;9.00;99.90;;;;;;5089804;28;20058;-70
2023/05/24 00:08:08;;;;;;;7.50;1.67;;;9.00;99.90;;;;;;5091008;28;20066;-70
2023/05/24 00:10:34;;;;;;;7.53;1.70;;;8.90;99.90;;;;;;5085794;28;20517;-74
2023/05/24 00:12:59;;;;;;;10.00;1.40;;;9.00;99.90;;;;;;5085522;28;20044;-70
2023/05/24 00:15:25;;;;;;;9.85;1.80;;;8.90;99.90;;;;;;5085721;28;20545;-70
2023/05/24 00:17:56;;;;;;;6.65;1.40;;;8.90;99.90;;;;;;5084762;28;20050;-69
2023/05/24 00:20:30;;;;;;;9.15;1.98;;;8.90;99.90;;;;;;5086839;28;20024;-69
2023/05/24 00:22:56;;;;;;;7.72;1.60;;;8.90;99.90;;;;;;5087579;28;20056;-71
2023/05/24 00:25:25;;;;;;;8.75;1.50;;;8.80;99.90;;;;;;5085709;28;20121;-70
2023/05/24 00:27:50;;;;;;;10.65;2.60;;;8.80;99.90;;;;;;5089843;28;20028;-70
2023/05/24 00:30:19;;;;;;;17.15;2.67;;;8.80;99.90;;;;;;5089671;28;20388;-70
2023/05/24 00:32:44;;;;;;;7.82;1.60;;;8.80;99.90;;;;;;5086651;28;20560;-69
2023/05/24 00:35:22;;;;;;;15.00;2.15;;;8.70;99.90;;;;;;5088210;28;20115;-68
2023/05/24 00:37:56;;;;;;;12.40;1.92;;;8.70;99.90;;;;;;5095903;28;20040;-72
2023/05/24 00:40:25;;;;;;;9.43;2.38;;;8.70;99.90;;;;;;5084958;28;20489;-72
2023/05/24 00:42:50;;;;;;;8.98;2.90;;;8.70;99.90;;;;;;5086411;28;20573;-69
2023/05/24 00:45:19;;;;;;;8.18;2.55;;;8.70;99.90;;;;;;5084606;28;20036;-69
2023/05/24 00:47:45;;;;;;;9.65;1.83;;;8.70;99.90;;;;;;5088909;28;20028;-71
2023/05/24 00:50:13;;;;;;;7.50;2.38;;;8.70;99.90;;;;;;5091592;28;20034;-70
2023/05/24 00:52:40;;;;;;;13.52;1.90;;;8.70;99.90;;;;;;5090491;28;20101;-69
2023/05/24 00:55:12;;;;;;;13.25;1.95;;;8.60;99.90;;;;;;5089554;28;20043;-70
2023/05/24 00:57:38;;;;;;;9.10;2.35;;;8.60;99.90;;;;;;5085016;28;20047;-70
2023/05/24 01:00:05;;;;;;;8.18;2.03;;;8.60;99.90;;;;;;5086090;28;20032;-69
2023/05/24 01:02:31;;;;;;;10.30;1.73;;;8.50;99.90;;;;;;5085137;28;20652;-69
2023/05/24 01:04:58;;;;;;;7.63;1.70;;;8.50;99.90;;;;;;5089855;28;20039;-70
2023/05/24 01:07:38;;;;;;;8.90;1.50;;;8.40;99.90;;;;;;5090762;28;20027;-69
2023/05/24 01:10:09;;;;;;;8.38;1.33;;;8.40;99.90;;;;;;5090034;27;20527;-69
2023/05/24 01:13:18;;;;;;;7.53;1.85;;;8.30;99.90;;;;;;5084075;28;20044;-69
2023/05/24 01:16:14;;;;;;;6.70;1.92;;;8.30;99.90;;;;;;5085627;28;20044;-70
2023/05/24 01:18:59;;;;;;;10.30;2.10;;;8.30;99.90;;;;;;5089911;28;20100;-71
2023/05/24 01:22:00;;;;;;;13.98;2.35;;;8.40;99.90;;;;;;5088708;28;20476;-70
2023/05/24 01:24:41;;;;;;;7.30;2.67;;;8.30;99.90;;;;;;5093465;28;20043;-69
2023/05/24 01:27:14;;;;;;;11.77;2.40;;;8.30;99.90;;;;;;5094513;28;20036;-69
2023/05/24 01:29:40;;;;;;;14.65;2.45;;;8.30;99.90;;;;;;5086345;28;20562;-70
2023/05/24 01:32:06;;;;;;;8.45;2.00;;;8.30;99.90;;;;;;5087209;28;20046;-69
2023/05/24 01:34:31;;;;;;;10.80;1.98;;;8.30;99.90;;;;;;5088837;28;20132;-69
2023/05/24 01:36:57;;;;;;;15.40;2.42;;;8.30;99.90;;;;;;5087216;28;20040;-69
2023/05/24 01:39:29;;;;;;;7.97;2.08;;;8.30;99.90;;;;;;5095086;28;20036;-70
2023/05/24 01:42:00;;;;;;;16.45;2.90;;;8.30;99.90;;;;;;5089096;28;20044;-71
2023/05/24 01:45:05;;;;;;;7.22;2.03;;;8.30;99.90;;;;;;5093258;28;20047;-68
2023/05/24 01:48:02;;;;;;;10.98;2.42;;;8.30;99.90;;;;;;5068766;28;20040;-70
2023/05/24 01:50:35;;;;;;;17.20;2.40;;;8.30;99.90;;;;;;5085368;28;20131;-72
2023/05/24 01:53:07;;;;;;;7.95;2.47;;;8.30;99.90;;;;;;5091743;28;20348;-69
2023/05/24 01:55:35;;;;;;;8.93;2.33;;;8.20;99.90;;;;;;5093498;28;20044;-68
2023/05/24 01:58:02;;;;;;;8.48;2.38;;;8.20;99.90;;;;;;5086875;28;20036;-70
2023/05/24 02:00:29;;;;;;;25.98;2.55;;;8.20;99.90;;;;;;5090819;28;20089;-70
2023/05/24 02:02:56;;;;;;;10.63;2.47;;;8.20;99.90;;;;;;5087792;28;20036;-69
2023/05/24 02:05:25;;;;;;;16.80;2.67;;;8.20;99.90;;;;;;5090762;28;20020;-69
2023/05/24 02:07:50;;;;;;;14.50;1.80;;;8.20;99.90;;;;;;5088580;28;20036;-71
2023/05/24 02:10:19;;;;;;;6.75;2.10;;;8.10;99.90;;;;;;5088849;28;20024;-70
2023/05/24 02:12:44;;;;;;;10.70;2.95;;;8.10;99.90;;;;;;5089725;28;20469;-69
2023/05/24 02:15:13;;;;;;;14.32;1.73;;;8.10;99.90;;;;;;5086324;28;20028;-69
2023/05/24 02:17:39;;;;;;;14.57;3.25;;;8.10;99.90;;;;;;5087270;28;20040;-70
2023/05/24 02:20:05;;;;;;;16.05;2.10;;;8.00;99.90;;;;;;5088504;28;20536;-71
2023/05/24 02:22:31;;;;;;;13.05;2.28;;;8.00;99.90;;;;;;5094759;28;20032;-70
2023/05/24 02:24:57;;;;;;;14.68;2.25;;;8.00;99.90;;;;;;5090300;27;20039;-70
2023/05/24 02:27:28;;;;;;;8.98;2.53;;;7.90;99.90;;;;;;5089418;28;20028;-69
2023/05/24 02:29:54;;;;;;;9.30;1.60;;;7.90;99.90;;;;;;5089392;28;20067;-69
2023/05/24 02:32:20;;;;;;;10.43;2.47;;;7.90;99.90;;;;;;5093347;28;20480;-69
2023/05/24 02:34:45;;;;;;;10.60;2.50;;;7.80;99.90;;;;;;5087847;28;20144;-71
2023/05/24 02:37:14;;;;;;;8.65;1.92;;;7.80;99.90;;;;;;5091077;28;20396;-68
2023/05/24 02:39:40;;;;;;;10.77;3.03;;;7.80;99.90;;;;;;5097907;28;20088;-68
2023/05/24 02:42:12;;;;;;;13.60;2.13;;;7.80;99.90;;;;;;5090063;28;20047;-69
2023/05/24 02:44:37;;;;;;;9.15;2.30;;;7.80;99.90;;;;;;5088640;28;20040;-71
2023/05/24 02:47:06;;;;;;;9.07;1.85;;;7.80;99.90;;;;;;5089312;28;20046;-70
2023/05/24 02:49:40;;;;;;;11.50;2.30;;;7.80;99.90;;;;;;5097293;28;20033;-68
2023/05/24 02:52:13;;;;;;;7.90;2.60;;;7.70;99.90;;;;;;5090207;28;20016;-69
2023/05/24 02:54:45;;;;;;;10.23;2.28;;;7.70;99.90;;;;;;5087802;28;20028;-70
2023/05/24 02:57:14;;;;;;;10.18;2.15;;;7.70;99.90;;;;;;5090139;28;20032;-70
2023/05/24 02:59:40;;;;;;;16.08;3.47;;;7.70;99.90;;;;;;5093107;28;20084;-71
2023/05/24 03:02:05;;;;;;;5.60;2.20;;;7.60;99.90;;;;;;5090233;28;20119;-70
2023/05/24 03:04:31;;;;;;;10.20;2.15;;;7.60;99.90;;;;;;5098675;28;20032;-69
2023/05/24 03:06:59;;;;;;;13.85;2.70;;;7.60;99.90;;;;;;5090290;28;20441;-69
2023/05/24 03:09:28;;;;;;;13.63;2.55;;;7.60;99.90;;;;;;5086641;28;20039;-69
2023/05/24 03:11:56;;;;;;;7.40;2.15;;;7.60;99.90;;;;;;5087859;28;20794;-70
2023/05/24 03:14:23;;;;;;;16.80;2.50;;;7.60;99.90;;;;;;5094269;28;20385;-69
2023/05/24 03:16:49;;;;;;;11.32;2.95;;;7.60;99.90;;;;;;5085875;28;20036;-69
2023/05/24 03:19:18;;;;;;;8.60;2.35;;;7.60;99.90;;;;;;5090347;28;20130;-68
2023/05/24 03:21:43;;;;;;;14.25;1.92;;;7.60;99.90;;;;;;5087291;28;20028;-69
2023/05/24 03:24:09;;;;;;;8.25;2.00;;;7.60;99.90;;;;;;5087187;28;20039;-69
2023/05/24 03:26:41;;;;;;;10.38;2.35;;;7.60;99.90;;;;;;5088645;28;20084;-71
2023/05/24 03:29:06;;;;;;;9.38;2.45;;;7.60;99.90;;;;;;5087736;28;20059;-69
2023/05/24 03:31:41;;;;;;;16.60;3.47;;;7.50;99.90;;;;;;5092350;28;20500;-69
2023/05/24 03:34:10;;;;;;;16.90;2.85;;;7.50;99.90;;;;;;5086813;28;20203;-69
2023/05/24 03:36:38;;;;;;;13.82;2.28;;;7.50;99.90;;;;;;5086217;28;20071;-70
2023/05/24 03:39:05;;;;;;;10.20;2.35;;;7.50;99.90;;;;;;5093521;28;20040;-71
2023/05/24 03:41:33;;;;;;;12.52;2.20;;;7.50;99.90;;;;;;5093154;28;20051;-70
2023/05/24 03:44:02;;;;;;;10.63;2.70;;;7.50;99.90;;;;;;5085138;28;20036;-70
2023/05/24 03:46:27;;;;;;;12.60;3.50;;;7.50;99.90;;;;;;5086162;28;20100;-69
2023/05/24 03:48:53;;;;;;;8.07;1.90;;;7.50;99.90;;;;;;5098619;27;20032;-69
2023/05/24 03:51:28;;;;;;;9.48;2.67;;;7.50;99.90;;;;;;5097422;28;20109;-68
2023/05/24 03:53:58;;;;;;;11.38;2.53;;;7.50;99.90;;;;;;5095269;28;20047;-69
2023/05/24 03:56:26;;;;;;;12.93;3.47;;;7.50;99.90;;;;;;5088112;28;20031;-70
2023/05/24 03:58:59;;;;;;;8.88;2.38;;;7.60;99.90;;;;;;5098982;28;20040;-69
2023/05/24 04:01:31;;;;;;;9.82;3.78;;;7.60;99.90;;;;;;5085149;28;20032;-70
2023/05/24 04:04:00;;;;;;;9.25;2.60;;;7.60;99.90;;;;;;5083261;28;20037;-70
2023/05/24 04:06:28;;;;;;;11.43;2.45;;;7.60;99.90;;;;;;5086736;28;20024;-69
2023/05/24 04:09:00;;;;;;;19.08;3.38;;;7.60;99.90;;;;;;5078310;28;20492;-72
2023/05/24 04:11:27;;;;;;;7.93;2.65;;;7.60;99.90;;;;;;5109900;27;20511;-70
2023/05/24 04:13:56;;;;;;;12.05;2.75;;;7.70;99.90;;;;;;5084704;28;20034;-72
2023/05/24 04:16:25;;;;;;;15.55;2.67;;;7.70;99.90;;;;;;5084965;28;20024;-70
2023/05/24 04:18:50;;;;;;;15.32;2.95;;;7.80;99.90;;;;;;5088968;28;20035;-70
2023/05/24 04:21:22;;;;;;;10.10;3.17;;;7.80;99.90;;;;;;5084745;28;20020;-69
2023/05/24 04:23:47;;;;;;;7.75;2.80;;;7.80;99.90;;;;;;5084598;28;20070;-70
2023/05/24 04:26:14;;;;;;;9.25;2.42;;;7.90;99.90;;;;;;5088850;28;20036;-69
2023/05/24 04:28:44;;;;;;;10.00;2.40;;;8.00;99.90;;;;;;5093227;28;20048;-72
2023/05/24 04:31:14;;;;;;;10.95;2.22;;;8.00;99.90;;;;;;5087762;28;20036;-71
2023/05/24 04:33:40;;;;;;;8.52;2.35;;;8.10;99.90;;;;;;5091609;28;20064;-71
2023/05/24 04:36:07;;;;;;;9.30;2.60;;;8.10;99.90;;;;;;5090111;28;20508;-70
2023/05/24 04:38:34;;;;;;;8.77;2.70;;;8.20;99.90;;;;;;5094539;28;20068;-71
2023/05/24 04:41:01;;;;;;;11.60;2.58;;;8.30;99.90;;;;;;5088914;28;20522;-69
2023/05/24 04:43:30;;;;;;;10.13;2.67;;;8.40;99.90;;;;;;5100749;28;20220;-68
2023/05/24 04:45:55;;;;;;;13.27;2.95;;;8.40;99.90;;;;;;5097614;28;20126;-73
2023/05/24 04:48:23;;;;;;;7.85;2.10;;;8.40;99.90;;;;;;5090805;28;20115;-69
2023/05/24 04:50:52;;;;;;;10.70;2.53;;;8.50;99.90;;;;;;5089941;28;20098;-68
2023/05/24 04:53:19;;;;;;;15.98;2.47;;;8.50;99.90;;;;;;5084143;28;20758;-70
2023/05/24 04:55:45;;;;;;;15.70;3.53;;;8.60;99.90;;;;;;5089187;28;20097;-71
2023/05/24 04:58:10;;;;;;;12.40;2.35;;;8.60;99.90;;;;;;5083622;28;20032;-68
2023/05/24 05:00:36;;;;;;;8.07;2.40;;;8.70;99.90;;;;;;5084029;28;20043;-69
2023/05/24 05:03:06;;;;;;;11.57;3.20;;;8.70;99.90;;;;;;5086289;28;20498;-69
2023/05/24 05:05:32;;;;;;;11.02;2.75;;;8.90;99.90;;;;;;5083630;28;20387;-69
2023/05/24 05:07:57;;;;;;;13.65;2.85;;;8.90;99.90;;;;;;5084751;28;20024;-73
2023/05/24 05:10:23;;;;;;;7.78;2.35;;;9.10;99.90;;;;;;5080546;28;20047;-71
2023/05/24 05:12:49;;;;;;;12.93;2.45;;;9.20;99.90;;;;;;5082411;28;20036;-69
2023/05/24 05:15:14;;;;;;;7.68;2.38;;;9.20;99.90;;;;;;5084500;28;20040;-73
2023/05/24 05:17:40;;;;;;;10.30;2.35;;;9.40;99.90;;;;;;5082775;28;20060;-71
2023/05/24 05:20:06;;;;;;;13.27;2.58;;;9.40;99.90;;;;;;5083109;28;20833;-71
2023/05/24 05:22:32;;;;;;;10.82;3.03;;;9.50;99.90;;;;;;5083637;28;20222;-69
2023/05/24 05:24:58;;;;;;;10.55;2.00;;;9.60;99.90;;;;;;5081049;28;20523;-72
2023/05/24 05:27:24;;;;;;;12.15;2.50;;;9.80;99.90;;;;;;5083490;28;20036;-69
2023/05/24 05:29:50;;;;;;;14.00;2.58;;;9.90;99.90;;;;;;5083104;28;20127;-72
2023/05/24 05:32:15;;;;;;;17.27;2.58;;;10.10;99.90;;;;;;5117052;27;20066;-72
2023/05/24 05:34:41;;;;;;;10.02;3.25;;;10.40;99.90;;;;;;5084658;28;20540;-70
2023/05/24 05:37:07;;;;;;;11.65;3.03;;;10.60;99.90;;;;;;5082509;28;20396;-70
2023/05/24 05:39:35;;;;;;;14.25;2.50;;;11.00;99.90;;;;;;5085465;28;20504;-70
2023/05/24 05:42:01;;;;;;;17.52;2.92;;;11.30;99.90;;;;;;5085943;28;20039;-70
2023/05/24 05:44:27;;;;;;;9.75;2.03;;;11.70;99.90;;;;;;5087156;28;20743;-72
2023/05/24 05:46:52;;;;;;;8.85;1.75;;;12.10;99.90;;;;;;5085492;28;20151;-70
2023/05/24 05:49:18;;;;;;;7.00;2.10;;;12.60;99.90;;;;;;5086550;28;21636;-70
2023/05/24 05:51:47;;;;;;;16.58;2.55;;;12.90;99.90;;;;;;5086383;27;20028;-69
2023/05/24 05:54:17;;;;;;;29.55;2.45;;;13.30;99.90;;;;;;5086468;28;20708;-69
2023/05/24 05:56:46;;;;;;;10.88;1.90;;;13.50;99.90;;;;;;5085512;28;21299;-69
2023/05/24 05:59:14;;;;;;;13.40;2.35;;;14.00;99.90;;;;;;5088411;27;20039;-70
2023/05/24 06:01:47;;;;;;;8.20;2.47;;;14.20;99.90;;;;;;5089668;28;20636;-72
2023/05/24 06:04:16;;;;;;;9.25;1.92;;;14.70;99.90;;;;;;5086461;28;20063;-69
2023/05/24 06:06:44;;;;;;;16.73;2.60;;;15.40;99.90;;;;;;5089765;28;20055;-69
2023/05/24 06:09:10;;;;;;;13.77;1.90;;;16.40;99.90;;;;;;5088362;28;20508;-70
2023/05/24 06:11:35;;;;;;;9.48;2.20;;;17.30;99.90;;;;;;5088474;27;20062;-70
2023/05/24 06:14:01;;;;;;;13.13;2.83;;;18.40;99.90;;;;;;5089790;27;20028;-69
2023/05/24 06:16:27;;;;;;;6.40;2.00;;;19.10;99.90;;;;;;5088839;28;20084;-71
2023/05/24 06:18:55;;;;;;;6.15;1.98;;;20.00;99.10;;;;;;5084396;28;20039;-71
2023/05/24 06:21:25;;;;;;;10.60;1.85;;;20.80;98.60;;;;;;5087491;28;20385;-72
2023/05/24 06:23:51;;;;;;;10.63;2.35;;;20.80;97.40;;;;;;5091246;27;20722;-69
2023/05/24 06:26:16;;;;;;;11.30;2.70;;;20.00;97.20;;;;;;5085864;28;20028;-70
2023/05/24 06:28:42;;;;;;;12.07;2.53;;;20.20;97.40;;;;;;5085778;28;20040;-69
2023/05/24 06:31:14;;;;;;;7.03;1.95;;;20.30;97.40;;;;;;5091729;27;20039;-70
2023/05/24 06:33:46;;;;;;;9.77;2.85;;;20.90;96.70;;;;;;5086094;27;20513;-70
2023/05/24 06:36:11;;;;;;;12.48;3.08;;;21.10;95.60;;;;;;5089534;27;20039;-71
2023/05/24 06:38:37;;;;;;;14.75;3.15;;;20.90;96.20;;;;;;5086710;28;20052;-70
2023/05/24 06:41:03;;;;;;;7.47;2.00;;;20.30;96.00;;;;;;5086204;27;20143;-72
2023/05/24 06:43:29;;;;;;;8.07;2.03;;;19.60;96.80;;;;;;5087511;27;20184;-70
2023/05/24 06:45:55;;;;;;;8.10;1.98;;;19.30;96.90;;;;;;5097355;28;20028;-71
2023/05/24 06:48:20;;;;;;;8.57;2.05;;;18.90;97.50;;;;;;5105886;27;20595;-71
2023/05/24 06:50:49;;;;;;;11.77;2.20;;;18.80;97.60;;;;;;5091661;28;20040;-71
2023/05/24 06:53:17;;;;;;;11.93;2.40;;;18.70;97.70;;;;;;5084324;28;20755;-71
2023/05/24 06:55:43;;;;;;;12.02;2.20;;;18.50;98.10;;;;;;5087316;28;20047;-71
2023/05/24 06:58:13;;;;;;;15.15;2.25;;;18.40;97.50;;;;;;5089743;28;20522;-71
2023/05/24 07:00:41;;;;;;;7.20;2.03;;;17.90;97.50;;;;;;5092216;28;20032;-73
2023/05/24 07:03:08;;;;;;;10.27;2.40;;;17.80;97.90;;;;;;5083462;28;20032;-70
2023/05/24 07:05:37;;;;;;;9.32;1.42;;;17.30;98.10;;;;;;5086998;28;20036;-70
2023/05/24 07:08:02;;;;;;;5.20;1.52;;;17.20;99.10;;;;;;5083667;28;20040;-70
2023/05/24 07:10:28;;;;;;;6.90;2.20;;;17.70;98.20;;;;;;5085075;27;20032;-69
2023/05/24 07:12:57;;;;;;;10.77;2.53;;;18.00;98.00;;;;;;5082352;28;20119;-73
2023/05/24 07:15:25;;;;;;;7.97;1.38;;;18.00;98.40;;;;;;5084998;27;20036;-69
2023/05/24 07:17:51;;;;;;;11.25;2.05;;;18.50;97.00;;;;;;5086178;27;20047;-69
2023/05/24 07:20:20;;;;;;;12.52;1.98;;;18.80;96.70;;;;;;5089924;28;20044;-70
2023/05/24 07:22:45;;;;;;;12.00;2.33;;;19.40;96.30;;;;;;5089713;28;20418;-71
2023/05/24 07:25:11;;;;;;;9.02;1.50;;;19.80;95.10;;;;;;5085933;27;20020;-71
2023/05/24 07:27:37;;;;;;;8.15;1.45;;;19.60;94.80;;;;;;5090311;27;20040;-73
2023/05/24 07:30:03;;;;;;;8.05;1.48;;;19.10;95.40;;;;;;5087157;28;20099;-73
2023/05/24 07:32:29;;;;;;;7.80;1.63;;;18.50;95.90;;;;;;5083997;28;20040;-71
2023/05/24 07:34:57;;;;;;;11.18;1.77;;;17.90;96.80;;;;;;5082108;28;20273;-71
2023/05/24 07:37:23;;;;;;;8.95;1.80;;;17.90;97.30;;;;;;5090443;28;20028;-70
2023/05/24 07:39:50;;;;;;;9.68;2.40;;;18.10;96.90;;;;;;5087329;27;20391;-69
2023/05/24 07:42:16;;;;;;;6.53;1.70;;;18.40;97.20;;;;;;5085444;28;20047;-68
2023/05/24 07:44:45;;;;;;;5.68;1.30;;;19.00;96.20;;;;;;5082554;28;20564;-68
2023/05/24 07:47:11;;;;;;;5.63;1.30;;;19.50;95.50;;;;;;5085077;28;20032;-69
2023/05/24 07:49:39;;;;;;;4.28;1.40;;;20.10;93.70;;;;;;5087752;28;20047;-68
2023/05/24 07:52:05;;;;;;;10.30;1.90;;;20.70;93.60;;;;;;5083137;28;20035;-70
2023/05/24 07:54:30;;;;;;;11.52;2.00;;;21.40;93.50;;;;;;5086538;28;20031;-69
2023/05/24 07:56:56;;;;;;;7.18;2.00;;;21.60;91.40;;;;;;5087324;28;20124;-70
2023/05/24 07:59:22;;;;;;;8.88;2.15;;;21.60;91.50;;;;;;5083248;28;20036;-69
2023/05/24 08:01:48;;;;;;;7.53;1.80;;;21.10;91.70;;;;;;5091518;28;20036;-70
2023/05/24 08:04:15;;;;;;;5.40;1.27;;;20.20;92.00;;;;;;5086583;28;20085;-70
2023/05/24 08:06:45;;;;;;;7.63;1.65;;;19.40;93.00;;;;;;5083418;28;20084;-70
2023/05/24 08:09:11;;;;;;;8.48;1.65;;;18.80;93.80;;;;;;5083845;28;20093;-69
2023/05/24 08:11:42;;;;;;;8.45;0.98;;;18.40;94.60;;;;;;5068388;28;20035;-70
2023/05/24 08:14:08;;;;;;;7.47;1.48;;;18.00;94.80;;;;;;5083797;28;20027;-71
2023/05/24 08:16:33;;;;;;;7.47;1.17;;;17.70;95.00;;;;;;5086655;28;20058;-71
2023/05/24 08:18:59;;;;;;;9.80;1.48;;;17.50;95.40;;;;;;5090791;28;20035;-70
2023/05/24 08:21:26;;;;;;;7.13;1.40;;;17.50;95.60;;;;;;5087880;28;20135;-70
2023/05/24 08:23:55;;;;;;;7.78;1.10;;;17.50;96.10;;;;;;5085814;28;20051;-70
2023/05/24 08:26:21;;;;;;;5.82;1.25;;;17.60;96.80;;;;;;5088223;28;20028;-71
2023/05/24 08:28:47;;;;;;;6.68;1.45;;;17.60;95.40;;;;;;5083504;28;20504;-70
2023/05/24 08:31:12;;;;;;;9.55;1.75;;;17.60;95.70;;;;;;5086491;28;20035;-71
2023/05/24 08:33:41;;;;;;;15.68;2.05;;;17.70;95.80;;;;;;5089050;27;20496;-70
2023/05/24 08:36:10;;;;;;;14.32;1.50;;;17.60;95.90;;;;;;5089985;28;20046;-70
2023/05/24 08:38:35;;;;;;;10.00;1.45;;;17.60;96.40;;;;;;5084906;28;20107;-71
2023/05/24 08:41:06;;;;;;;8.65;1.85;;;17.70;96.90;;;;;;5084528;28;20090;-70
2023/05/24 08:43:32;;;;;;;;;;;17.80;96.20;;;;;;5090442;28;20036;-69
2023/05/24 08:46:00;;;;;;;4.32;1.10;;;18.00;96.90;;;;;;5088749;28;19920;-73
2023/05/24 08:48:27;;;;;;;5.22;1.10;;;18.10;96.10;;;;;;5083804;28;20032;-72
2023/05/24 08:50:57;;;;;;;9.95;1.45;;;18.20;95.10;;;;;;5087317;28;20035;-73
2023/05/24 08:53:23;;;;;;;5.85;1.23;;;18.00;95.00;;;;;;5088407;28;20024;-72
2023/05/24 08:55:55;;;;;;;4.97;1.15;;;18.10;94.90;;;;;;5087785;28;20383;-73
2023/05/24 08:58:20;;;;;;;4.72;1.10;;;18.00;94.70;;;;;;5083945;28;20040;-71
2023/05/24 09:00:46;;;;;;;5.75;1.45;;;17.90;94.90;;;;;;5086884;28;20044;-72
2023/05/24 09:03:12;;;;;;;5.22;1.00;;;17.90;94.80;;;;;;5087447;28;20028;-72
2023/05/24 09:05:40;;;;;;;9.68;1.75;;;18.00;95.50;;;;;;5082574;28;20081;-71
2023/05/24 09:08:09;;;;;;;3.30;1.00;;;18.00;94.70;;;;;;5085558;28;20455;-71
2023/05/24 09:10:35;;;;;;;4.85;0.93;;;18.20;94.90;;;;;;5084784;28;20776;-71
2023/05/24 09:13:01;;;;;;;5.80;1.20;;;18.20;95.10;;;;;;5079989;28;20028;-71
2023/05/24 09:15:27;;;;;;;9.68;1.67;;;18.30;94.10;;;;;;5087714;28;20458;-73
2023/05/24 09:17:53;;;;;;;7.15;1.65;;;18.40;93.50;;;;;;5080300;28;20024;-72
2023/05/24 09:20:20;;;;;;;9.68;1.60;;;18.40;93.80;;;;;;5080277;28;20040;-72
2023/05/24 09:22:52;;;;;;;13.07;1.60;;;18.40;94.30;;;;;;5082897;28;20057;-71
2023/05/24 09:25:21;;;;;;;7.40;1.70;;;18.50;94.30;;;;;;5080690;28;20142;-72
2023/05/24 09:27:51;;;;;;;9.53;1.53;;;18.70;94.10;;;;;;5089248;28;20859;-71
2023/05/24 09:30:18;;;;;;;6.82;1.50;;;18.80;93.50;;;;;;5088757;28;20671;-72
2023/05/24 09:33:05;;;;;;;6.47;1.10;;;18.70;93.90;;;;;;5087894;27;20032;-72
2023/05/24 09:35:31;;;;;;;5.97;1.60;;;18.70;93.90;;;;;;5086328;28;20028;-72
2023/05/24 09:38:00;;;;;;;4.57;1.10;;;18.80;94.30;;;;;;5085011;28;20062;-72
2023/05/24 09:40:26;;;;;;;7.72;1.05;;;18.90;93.90;;;;;;5088852;28;20036;-73
2023/05/24 09:43:08;;;;;;;10.98;1.52;;;19.10;94.50;;;;;;5086111;28;20036;-72
2023/05/24 09:45:45;;;;;;;6.05;1.70;;;19.50;93.70;;;;;;5087688;28;20112;-72
2023/05/24 09:48:16;;;;;;;6.43;1.48;;;19.30;93.60;;;;;;5085845;28;20028;-72
2023/05/24 09:50:44;;;;;;;7.82;1.45;;;19.10;93.60;;;;;;5086211;27;20085;-73
2023/05/24 09:53:10;;;;;;;5.85;1.33;;;18.90;93.90;;;;;;5087527;27;20036;-72
2023/05/24 09:55:36;;;;;;;9.35;1.70;;;18.80;93.70;;;;;;5087392;28;20138;-73
2023/05/24 09:58:07;;;;;;;12.35;1.30;;;18.70;93.70;;;;;;5090762;27;20144;-73
2023/05/24 10:00:39;;;;;;;7.10;1.25;;;18.70;93.90;;;;;;5088264;27;20040;-71
2023/05/24 10:03:07;;;;;;;4.55;1.40;;;18.70;94.00;;;;;;5088643;28;20039;-70
2023/05/24 10:05:36;;;;;;;3.88;1.10;;;18.60;94.60;;;;;;5086156;27;20032;-70
2023/05/24 10:08:05;;;;;;;10.45;1.48;;;18.80;94.60;;;;;;5086785;28;20078;-71
2023/05/24 10:10:32;;;;;;;9.48;1.98;;;18.90;93.70;;;;;;5086606;28;20066;-73
2023/05/24 10:13:01;;;;;;;7.30;1.77;;;18.90;94.00;;;;;;5087772;28;20028;-72
2023/05/24 10:15:28;;;;;;;10.35;2.05;;;18.70;94.10;;;;;;5089712;27;20118;-71
2023/05/24 10:17:59;;;;;;;6.38;2.10;;;18.70;94.20;;;;;;5087202;28;20462;-70
2023/05/24 10:20:25;;;;;;;7.53;1.83;;;19.00;94.50;;;;;;5082525;27;20044;-70
2023/05/24 10:22:54;;;;;;;7.63;2.03;;;19.40;93.40;;;;;;5084525;27;20071;-72
2023/05/24 10:25:21;;;;;;;4.20;1.20;;;19.20;93.20;;;;;;5087244;28;20040;-72
2023/05/24 10:27:49;;;;;;;7.43;1.83;;;19.30;94.10;;;;;;5097607;27;20535;-73
2023/05/24 10:30:41;;;;;;;8.82;1.75;;;19.10;93.50;;;;;;5084909;28;20078;-72
2023/05/24 10:33:13;;;;;;;5.72;1.55;;;19.00;93.90;;;;;;5081501;28;20028;-70
2023/05/24 10:35:40;;;;;;;3.92;1.42;;;19.00;94.50;;;;;;5089417;27;20118;-71
2023/05/24 10:38:06;;;;;;;4.43;1.20;;;18.80;93.50;;;;;;5083934;28;20040;-68
2023/05/24 10:40:32;;;;;;;7.43;1.70;;;18.70;94.20;;;;;;5086013;27;20427;-72
2023/05/24 10:42:58;;;;;;;4.68;1.83;;;18.80;94.80;;;;;;5086813;28;20724;-70
2023/05/24 10:45:26;;;;;;;7.45;2.03;;;19.20;94.70;;;;;;5085740;28;20123;-69
2023/05/24 10:47:53;;;;;;;8.02;1.75;;;19.40;94.10;;;;;;5085298;28;20046;-68
2023/05/24 10:50:24;;;;;;;8.95;2.22;;;19.50;93.70;;;;;;5083604;28;20489;-71
2023/05/24 10:53:21;;;;;;;8.73;1.60;;;19.30;93.60;;;;;;5113617;27;20101;-70
2023/05/24 10:55:54;;;;;;;6.97;1.05;;;19.60;94.50;;;;;;5084868;28;20066;-73
2023/05/24 10:58:22;;;;;;;9.20;1.30;;;19.70;93.80;;;;;;5084246;28;20043;-72
2023/05/24 11:00:50;;;;;;;5.30;1.13;;;19.50;92.70;;;;;;5087426;27;20066;-76
2023/05/24 11:03:23;;;;;;;7.07;1.38;;;19.40;92.90;;;;;;5081934;28;20032;-69
2023/05/24 11:05:48;;;;;;;6.28;1.50;;;19.20;93.30;;;;;;5085071;28;20050;-69
2023/05/24 11:08:34;;;;;;;10.90;2.00;;;19.10;93.60;;;;;;5085243;27;20040;-73
2023/05/24 11:11:15;;;;;;;4.95;1.17;;;19.00;93.80;;;;;;5086993;28;20062;-73
2023/05/24 11:13:42;;;;;;;5.93;1.60;;;19.10;93.70;;;;;;5086854;28;20065;-71
2023/05/24 11:16:08;;;;;;;4.47;1.75;;;19.30;93.20;;;;;;5090940;28;20104;-71
2023/05/24 11:18:37;;;;;;;7.68;1.55;;;19.40;93.70;;;;;;5086336;28;20039;-72
2023/05/24 11:21:04;;;;;;;4.70;1.50;;;19.30;93.10;;;;;;5086367;28;20085;-71
2023/05/24 11:23:31;;;;;;;3.72;0.88;;;19.30;93.30;;;;;;5088960;28;20078;-72
2023/05/24 11:25:56;;;;;;;9.98;1.83;;;19.20;93.00;;;;;;5085591;27;20036;-71
2023/05/24 11:28:23;;;;;;;11.65;1.52;;;19.20;93.50;;;;;;5085044;28;20020;-71
2023/05/24 11:30:49;;;;;;;6.90;1.63;;;19.30;93.40;;;;;;5091963;27;20016;-71
2023/05/24 11:33:22;;;;;;;10.60;1.60;;;19.30;93.60;;;;;;5087284;28;20478;-71
2023/05/24 11:35:50;;;;;;;8.32;1.20;;;19.30;92.90;;;;;;5086132;28;20480;-71
2023/05/24 11:38:17;;;;;;;10.13;1.45;;;19.20;93.10;;;;;;5090109;28;20567;-71
2023/05/24 11:40:44;;;;;;;4.88;1.30;;;19.00;93.20;;;;;;5087975;28;20032;-72
2023/05/24 11:43:18;;;;;;;3.25;1.13;;;19.20;93.20;;;;;;5085987;28;20027;-72
2023/05/24 11:45:47;;;;;;;6.60;1.30;;;19.30;94.00;;;;;;5087126;28;20047;-72
2023/05/24 11:48:13;;;;;;;4.53;1.35;;;19.40;92.70;;;;;;5091087;28;20040;-71
2023/05/24 11:50:40;;;;;;;7.00;1.25;;;19.30;92.90;;;;;;5090174;27;20040;-71
2023/05/24 11:53:12;;;;;;;4.78;1.40;;;19.20;93.20;;;;;;5084277;28;20032;-71
2023/05/24 11:55:42;;;;;;;11.60;1.48;;;19.10;93.20;;;;;;5089011;28;20040;-71
2023/05/24 11:58:23;;;;;;;4.03;0.90;;;18.90;93.40;;;;;;5090513;28;20661;-71
2023/05/24 12:00:50;;;;;;;12.15;2.17;;;18.90;93.30;;;;;;5081708;28;20085;-71
2023/05/24 12:03:16;;;;;;;11.98;1.38;;;18.80;94.10;;;;;;5083865;28;20036;-71
2023/05/24 12:05:42;;;;;;;9.38;1.33;;;18.90;93.80;;;;;;5080842;28;20028;-75
2023/05/24 12:08:14;;;;;;;7.07;1.17;;;18.90;93.60;;;;;;5084671;28;20073;-72
2023/05/24 12:10:43;;;;;;;8.63;1.83;;;18.90;93.30;;;;;;5084595;28;20536;-71
2023/05/24 12:13:21;;;;;;;6.68;1.40;;;18.90;93.20;;;;;;5085813;28;20042;-72
2023/05/24 12:15:57;;;;;;;5.28;1.20;;;18.90;93.30;;;;;;5083575;28;20173;-72
2023/05/24 12:18:25;;;;;;;10.50;1.45;;;18.80;93.70;;;;;;5082568;28;20077;-71
2023/05/24 12:20:51;;;;;;;5.05;1.42;;;18.70;93.30;;;;;;5082058;28;20131;-72
2023/05/24 12:23:24;;;;;;;7.93;1.02;;;18.50;93.70;;;;;;5088849;28;20120;-72
2023/05/24 12:25:49;;;;;;;4.43;1.25;;;18.50;94.80;;;;;;5083195;28;20032;-72
2023/05/24 12:28:20;;;;;;;10.15;1.63;;;18.50;94.20;;;;;;5082811;28;20193;-71
2023/05/24 12:30:48;;;;;;;5.63;1.20;;;18.60;94.00;;;;;;5084296;28;20043;-71
2023/05/24 12:33:14;;;;;;;4.55;1.30;;;18.70;94.30;;;;;;5088692;28;20060;-72
2023/05/24 12:35:41;;;;;;;7.18;1.10;;;18.90;94.00;;;;;;5086443;28;20067;-71
2023/05/24 12:38:10;;;;;;;6.15;1.55;;;19.20;94.00;;;;;;5085663;28;20035;-71
2023/05/24 12:40:35;;;;;;;6.82;1.25;;;19.30;94.00;;;;;;5091314;28;20140;-71
2023/05/24 12:43:03;;;;;;;2.10;0.80;;;19.40;93.70;;;;;;5081405;28;20115;-72
2023/05/24 12:45:31;;;;;;;5.55;1.17;;;19.30;93.40;;;;;;5083552;28;20479;-72
2023/05/24 12:48:01;;;;;;;6.40;1.35;;;19.20;93.30;;;;;;5076408;28;20036;-72
2023/05/24 12:50:30;;;;;;;8.20;1.05;;;18.90;93.40;;;;;;5114103;27;20036;-72
2023/05/24 12:52:56;;;;;;;9.25;1.42;;;18.90;93.90;;;;;;5086279;28;20055;-72
2023/05/24 12:55:26;;;;;;;5.70;1.00;;;18.90;94.20;;;;;;5083309;28;20040;-70